Flight Track Log - Related Links

Times and Time Zones

All times are in EDT time to prevent confusion due to time zone crossing. See the N44503 flight status page for this flight to view local times or setup timezone preferences in your user account.

Time Position Orientation Groundspeed Altitude Reporting Facility
EDT Latitude Longitude Course Direction KTS MPH feet Rate Location/Type
Fri 11:11:15 PM 32.8736 -97.0333 North  Level FlightAware
Fri 11:11:49 PM 32.8867 -97.0314 180° South 135 155 1,800  Level FAA TRACON
Fri 11:12:29 PM 32.8581 -97.0317 176° South 158 182 3,000 2,051 Climbing FAA TRACON
Fri 11:13:08 PM 32.8211 -97.0286 178° South 197 227 4,500 1,975 Climbing FAA TRACON
Fri 11:13:48 PM 32.7808 -97.0269 183° South 242 278 5,600 2,400 Climbing FAA TRACON
Fri 11:14:28 PM 32.7283 -97.0303 184° South 275 316 7,700 3,300 Climbing FAA TRACON
Fri 11:15:08 PM 32.6744 -97.0344 183° South 278 320 10,000 2,444 Climbing FAA TRACON
Fri 11:15:49 PM 32.6147 -97.0386 187° South 318 366 11,000 1,926 Climbing FAA TRACON
Fri 11:16:29 PM 32.5561 -97.0472 185° South 347 399 12,600 2,625 Climbing FAA TRACON
Fri 11:17:09 PM 32.4872 -97.0547 185° South 362 417 14,500 2,734 Climbing FAA TRACON
Fri 11:17:48 PM 32.4236 -97.0619 185° South 372 428 16,200 2,506 Climbing FAA TRACON
Fri 11:18:28 PM 32.3503 -97.0697 186° South 383 441 17,800 2,475 Climbing FAA TRACON
Fri 11:19:08 PM 32.2747 -97.0786 185° South 395 455 19,500 2,175 Climbing FAA TRACON
Fri 11:19:48 PM 32.2053 -97.0858 186° South 407 468 20,700 1,429 Climbing FAA TRACON
Fri 11:20:32 PM 32.1258 -97.0956 186° South 414 476 21,500 963 Climbing FAA TRACON
Fri 11:21:09 PM 32.0453 -97.1058 185° South 418 481 22,000 395 Climbing FAA TRACON
Fri 11:21:48 PM 31.9739 -97.1136 187° South 419 482 22,000  Level FAA TRACON
Fri 11:24:06 PM 31.7053 -97.1536 186° South 429 494 22,000  Level Houston Center
Fri 11:25:06 PM 31.5900 -97.1667 185° South 423 487 22,000  Level Houston Center
Fri 11:26:06 PM 31.4706 -97.1794 187° South 423 487 22,000  Level Houston Center
Fri 11:27:06 PM 31.3553 -97.1950 185° South 423 487 22,000  Level Houston Center
Fri 11:28:06 PM 31.2506 -97.2061 193° South 428 493 22,000 -1,100 Level Houston Center
Fri 11:29:06 PM 31.1389 -97.2364 200° South 423 487 19,800 -2,331 Descending Houston Center
Fri 11:30:07 PM 31.0369 -97.2792 197° South 410 472 17,300 -2,628 Descending Houston Center
Fri 11:31:07 PM 30.9228 -97.3186 199° South 399 459 14,500 -2,250 Descending Houston Center
Fri 11:32:07 PM 30.8250 -97.3589 207° Southwest 380 437 12,800 -1,815 Descending Houston Center
Fri 11:33:06 PM 30.7439 -97.4075 212° Southwest 345 397 10,900 -1,412 Descending Houston Center
Fri 11:34:06 PM 30.6728 -97.4589 213° Southwest 320 368 10,000 -1,000 Descending Houston Center
Fri 11:35:06 PM 30.6167 -97.5017 217° Southwest 294 338 8,900 -1,650 Descending Houston Center
Fri 11:36:06 PM 30.5625 -97.5492 214° Southwest 265 305 6,700 -1,900 Descending Houston Center
Fri 11:37:06 PM 30.5064 -97.5939 215° Southwest 254 292 5,100 -1,339 Descending Houston Center
Fri 11:38:07 PM 30.4544 -97.6367 216° Southwest 249 287 4,000 -600 Descending Houston Center
Fri 11:39:06 PM 30.4044 -97.6794 184° South 234 269 3,900 -600 Descending Houston Center
Fri 11:40:07 PM 30.3500 -97.6833 180° South 199 229 2,800 -793 Descending Houston Center
Fri 11:41:07 PM 30.3042 -97.6831 180° South 167 192 2,300 -500 Descending Houston Center

Login

Don't have an account? Register now (free) for customized features, flight alerts, and more!